sensor_id;sensor_type;location;lat;lon;timestamp;P1;durP1;ratioP1;P2;durP2;ratioP2
9364;SDS011;4722;49.340;9.800;2022-10-16T00:00:44;1.02;;;0.50;;
9364;SDS011;4722;49.340;9.800;2022-10-16T00:03:11;0.15;;;0.15;;
9364;SDS011;4722;49.340;9.800;2022-10-16T00:05:43;0.70;;;0.30;;
9364;SDS011;4722;49.340;9.800;2022-10-16T00:08:12;0.80;;;0.43;;
9364;SDS011;4722;49.340;9.800;2022-10-16T00:10:38;0.90;;;0.40;;
9364;SDS011;4722;49.340;9.800;2022-10-16T00:13:04;0.77;;;0.28;;
9364;SDS011;4722;49.340;9.800;2022-10-16T00:15:35;0.80;;;0.22;;
9364;SDS011;4722;49.340;9.800;2022-10-16T00:18:01;1.20;;;0.40;;
9364;SDS011;4722;49.340;9.800;2022-10-16T00:20:27;0.30;;;0.20;;
9364;SDS011;4722;49.340;9.800;2022-10-16T00:22:53;0.77;;;0.38;;
9364;SDS011;4722;49.340;9.800;2022-10-16T00:25:19;1.63;;;0.68;;
9364;SDS011;4722;49.340;9.800;2022-10-16T00:27:45;0.85;;;0.35;;
9364;SDS011;4722;49.340;9.800;2022-10-16T00:30:11;0.57;;;0.30;;
9364;SDS011;4722;49.340;9.800;2022-10-16T00:32:37;0.73;;;0.22;;
9364;SDS011;4722;49.340;9.800;2022-10-16T00:35:03;3.80;;;0.55;;
9364;SDS011;4722;49.340;9.800;2022-10-16T00:37:29;0.57;;;0.30;;
9364;SDS011;4722;49.340;9.800;2022-10-16T00:39:55;0.68;;;0.40;;
9364;SDS011;4722;49.340;9.800;2022-10-16T00:42:21;1.73;;;0.43;;
9364;SDS011;4722;49.340;9.800;2022-10-16T00:44:54;0.73;;;0.52;;
9364;SDS011;4722;49.340;9.800;2022-10-16T00:47:29;0.30;;;0.20;;
9364;SDS011;4722;49.340;9.800;2022-10-16T00:50:02;1.52;;;0.40;;
9364;SDS011;4722;49.340;9.800;2022-10-16T00:52:34;1.50;;;0.40;;
9364;SDS011;4722;49.340;9.800;2022-10-16T00:55:01;0.30;;;0.22;;
9364;SDS011;4722;49.340;9.800;2022-10-16T00:57:28;1.17;;;0.43;;
9364;SDS011;4722;49.340;9.800;2022-10-16T00:59:54;3.92;;;0.52;;
9364;SDS011;4722;49.340;9.800;2022-10-16T01:02:20;2.30;;;0.50;;
9364;SDS011;4722;49.340;9.800;2022-10-16T01:04:50;1.73;;;0.50;;
9364;SDS011;4722;49.340;9.800;2022-10-16T01:12:41;2.45;;;0.63;;
9364;SDS011;4722;49.340;9.800;2022-10-16T01:15:25;0.93;;;0.43;;
9364;SDS011;4722;49.340;9.800;2022-10-16T01:18:00;7.78;;;1.08;;
9364;SDS011;4722;49.340;9.800;2022-10-16T01:20:33;1.35;;;0.40;;
9364;SDS011;4722;49.340;9.800;2022-10-16T01:23:10;5.07;;;0.73;;
9364;SDS011;4722;49.340;9.800;2022-10-16T01:28:17;0.63;;;0.40;;
9364;SDS011;4722;49.340;9.800;2022-10-16T01:30:44;1.73;;;0.75;;
9364;SDS011;4722;49.340;9.800;2022-10-16T01:33:15;1.00;;;0.40;;
9364;SDS011;4722;49.340;9.800;2022-10-16T01:35:51;0.73;;;0.40;;
9364;SDS011;4722;49.340;9.800;2022-10-16T01:38:53;3.33;;;0.40;;
9364;SDS011;4722;49.340;9.800;2022-10-16T01:41:18;0.50;;;0.28;;
9364;SDS011;4722;49.340;9.800;2022-10-16T01:43:46;0.60;;;0.30;;
9364;SDS011;4722;49.340;9.800;2022-10-16T01:46:21;0.77;;;0.30;;
9364;SDS011;4722;49.340;9.800;2022-10-16T01:48:48;3.03;;;0.70;;
9364;SDS011;4722;49.340;9.800;2022-10-16T01:51:14;1.10;;;0.57;;
9364;SDS011;4722;49.340;9.800;2022-10-16T01:53:41;0.77;;;0.40;;
9364;SDS011;4722;49.340;9.800;2022-10-16T01:56:11;0.47;;;0.10;;
9364;SDS011;4722;49.340;9.800;2022-10-16T01:58:40;0.77;;;0.35;;
9364;SDS011;4722;49.340;9.800;2022-10-16T02:01:11;1.05;;;0.50;;
9364;SDS011;4722;49.340;9.800;2022-10-16T02:03:39;0.75;;;0.30;;
9364;SDS011;4722;49.340;9.800;2022-10-16T02:06:07;0.80;;;0.32;;
9364;SDS011;4722;49.340;9.800;2022-10-16T02:08:33;0.75;;;0.30;;
9364;SDS011;4722;49.340;9.800;2022-10-16T02:10:59;0.98;;;0.75;;
9364;SDS011;4722;49.340;9.800;2022-10-16T02:13:37;0.28;;;0.20;;
9364;SDS011;4722;49.340;9.800;2022-10-16T02:18:35;0.47;;;0.25;;
9364;SDS011;4722;49.340;9.800;2022-10-16T02:21:07;0.90;;;0.30;;
9364;SDS011;4722;49.340;9.800;2022-10-16T02:23:37;1.80;;;0.30;;
9364;SDS011;4722;49.340;9.800;2022-10-16T02:26:07;1.10;;;0.68;;
9364;SDS011;4722;49.340;9.800;2022-10-16T02:28:42;0.80;;;0.32;;
9364;SDS011;4722;49.340;9.800;2022-10-16T02:31:12;2.35;;;0.55;;
9364;SDS011;4722;49.340;9.800;2022-10-16T02:33:42;0.70;;;0.50;;
9364;SDS011;4722;49.340;9.800;2022-10-16T02:36:10;0.95;;;0.32;;
9364;SDS011;4722;49.340;9.800;2022-10-16T02:38:36;1.17;;;0.40;;
9364;SDS011;4722;49.340;9.800;2022-10-16T02:41:03;0.77;;;0.30;;
9364;SDS011;4722;49.340;9.800;2022-10-16T02:43:29;0.70;;;0.50;;
9364;SDS011;4722;49.340;9.800;2022-10-16T02:45:55;1.33;;;0.30;;
9364;SDS011;4722;49.340;9.800;2022-10-16T02:48:21;1.30;;;0.55;;
9364;SDS011;4722;49.340;9.800;2022-10-16T02:50:47;1.27;;;0.52;;
9364;SDS011;4722;49.340;9.800;2022-10-16T02:53:14;0.35;;;0.30;;
9364;SDS011;4722;49.340;9.800;2022-10-16T02:55:39;1.35;;;0.50;;
9364;SDS011;4722;49.340;9.800;2022-10-16T02:58:05;4.50;;;0.32;;
9364;SDS011;4722;49.340;9.800;2022-10-16T03:00:31;0.40;;;0.40;;
9364;SDS011;4722;49.340;9.800;2022-10-16T03:02:57;0.77;;;0.50;;
9364;SDS011;4722;49.340;9.800;2022-10-16T03:05:23;0.50;;;0.30;;
9364;SDS011;4722;49.340;9.800;2022-10-16T03:07:49;0.50;;;0.25;;
9364;SDS011;4722;49.340;9.800;2022-10-16T03:10:17;0.50;;;0.22;;
9364;SDS011;4722;49.340;9.800;2022-10-16T03:12:43;1.00;;;0.52;;
9364;SDS011;4722;49.340;9.800;2022-10-16T03:15:09;0.85;;;0.40;;
9364;SDS011;4722;49.340;9.800;2022-10-16T03:17:35;0.50;;;0.30;;
9364;SDS011;4722;49.340;9.800;2022-10-16T03:20:01;0.73;;;0.38;;
9364;SDS011;4722;49.340;9.800;2022-10-16T03:22:27;0.55;;;0.28;;
9364;SDS011;4722;49.340;9.800;2022-10-16T03:24:53;0.75;;;0.40;;
9364;SDS011;4722;49.340;9.800;2022-10-16T03:27:19;1.55;;;0.55;;
9364;SDS011;4722;49.340;9.800;2022-10-16T03:29:45;0.32;;;0.22;;
9364;SDS011;4722;49.340;9.800;2022-10-16T03:32:11;0.63;;;0.45;;
9364;SDS011;4722;49.340;9.800;2022-10-16T03:34:37;0.77;;;0.40;;
9364;SDS011;4722;49.340;9.800;2022-10-16T03:37:03;0.57;;;0.30;;
9364;SDS011;4722;49.340;9.800;2022-10-16T03:39:29;3.95;;;0.60;;
9364;SDS011;4722;49.340;9.800;2022-10-16T03:41:55;0.63;;;0.20;;
9364;SDS011;4722;49.340;9.800;2022-10-16T03:44:21;4.97;;;0.40;;
9364;SDS011;4722;49.340;9.800;2022-10-16T03:46:47;0.82;;;0.30;;
9364;SDS011;4722;49.340;9.800;2022-10-16T03:49:13;0.73;;;0.30;;
9364;SDS011;4722;49.340;9.800;2022-10-16T03:51:39;0.57;;;0.40;;
9364;SDS011;4722;49.340;9.800;2022-10-16T03:54:05;0.93;;;0.40;;
9364;SDS011;4722;49.340;9.800;2022-10-16T03:56:31;0.52;;;0.25;;
9364;SDS011;4722;49.340;9.800;2022-10-16T03:58:57;0.82;;;0.43;;
9364;SDS011;4722;49.340;9.800;2022-10-16T04:01:23;1.35;;;0.40;;
9364;SDS011;4722;49.340;9.800;2022-10-16T04:03:49;3.10;;;0.45;;
9364;SDS011;4722;49.340;9.800;2022-10-16T04:06:15;3.80;;;0.55;;
9364;SDS011;4722;49.340;9.800;2022-10-16T04:08:44;0.30;;;0.20;;
9364;SDS011;4722;49.340;9.800;2022-10-16T04:11:10;1.33;;;0.40;;
9364;SDS011;4722;49.340;9.800;2022-10-16T04:13:36;1.85;;;0.93;;
9364;SDS011;4722;49.340;9.800;2022-10-16T04:16:02;0.55;;;0.30;;
9364;SDS011;4722;49.340;9.800;2022-10-16T04:18:28;1.35;;;0.30;;
9364;SDS011;4722;49.340;9.800;2022-10-16T04:20:54;0.63;;;0.32;;
9364;SDS011;4722;49.340;9.800;2022-10-16T04:23:20;0.43;;;0.28;;
9364;SDS011;4722;49.340;9.800;2022-10-16T04:25:47;0.50;;;0.25;;
9364;SDS011;4722;49.340;9.800;2022-10-16T04:28:13;0.40;;;0.20;;
9364;SDS011;4722;49.340;9.800;2022-10-16T04:30:39;0.20;;;0.20;;
9364;SDS011;4722;49.340;9.800;2022-10-16T04:33:05;1.13;;;0.30;;
9364;SDS011;4722;49.340;9.800;2022-10-16T04:35:31;1.58;;;0.45;;
9364;SDS011;4722;49.340;9.800;2022-10-16T04:37:58;0.82;;;0.45;;
9364;SDS011;4722;49.340;9.800;2022-10-16T04:40:24;4.55;;;0.60;;
9364;SDS011;4722;49.340;9.800;2022-10-16T04:42:50;0.68;;;0.40;;
9364;SDS011;4722;49.340;9.800;2022-10-16T04:45:16;0.80;;;0.40;;
9364;SDS011;4722;49.340;9.800;2022-10-16T04:47:42;1.75;;;0.47;;
9364;SDS011;4722;49.340;9.800;2022-10-16T04:50:08;1.05;;;0.43;;
9364;SDS011;4722;49.340;9.800;2022-10-16T04:52:34;1.08;;;0.57;;
9364;SDS011;4722;49.340;9.800;2022-10-16T04:55:00;0.77;;;0.38;;
9364;SDS011;4722;49.340;9.800;2022-10-16T04:57:27;0.60;;;0.40;;
9364;SDS011;4722;49.340;9.800;2022-10-16T04:59:53;0.68;;;0.30;;
9364;SDS011;4722;49.340;9.800;2022-10-16T05:02:19;0.68;;;0.35;;
9364;SDS011;4722;49.340;9.800;2022-10-16T05:04:45;1.13;;;0.60;;
9364;SDS011;4722;49.340;9.800;2022-10-16T05:07:11;0.50;;;0.30;;
9364;SDS011;4722;49.340;9.800;2022-10-16T05:09:37;5.18;;;0.65;;
9364;SDS011;4722;49.340;9.800;2022-10-16T05:12:03;0.40;;;0.20;;
9364;SDS011;4722;49.340;9.800;2022-10-16T05:14:29;0.77;;;0.40;;
9364;SDS011;4722;49.340;9.800;2022-10-16T05:16:56;0.80;;;0.40;;
9364;SDS011;4722;49.340;9.800;2022-10-16T05:19:22;0.60;;;0.20;;
9364;SDS011;4722;49.340;9.800;2022-10-16T05:21:48;0.88;;;0.50;;
9364;SDS011;4722;49.340;9.800;2022-10-16T05:24:14;1.90;;;0.30;;
9364;SDS011;4722;49.340;9.800;2022-10-16T05:26:40;1.10;;;0.30;;
9364;SDS011;4722;49.340;9.800;2022-10-16T05:29:06;2.92;;;1.00;;
9364;SDS011;4722;49.340;9.800;2022-10-16T05:31:32;0.52;;;0.30;;
9364;SDS011;4722;49.340;9.800;2022-10-16T05:33:58;2.08;;;0.82;;
9364;SDS011;4722;49.340;9.800;2022-10-16T05:36:25;2.47;;;0.50;;
9364;SDS011;4722;49.340;9.800;2022-10-16T05:38:51;0.90;;;0.43;;
9364;SDS011;4722;49.340;9.800;2022-10-16T05:41:17;1.60;;;0.57;;
9364;SDS011;4722;49.340;9.800;2022-10-16T05:43:49;0.82;;;0.40;;
9364;SDS011;4722;49.340;9.800;2022-10-16T05:46:15;2.95;;;2.00;;
9364;SDS011;4722;49.340;9.800;2022-10-16T05:48:41;9.73;;;4.53;;
9364;SDS011;4722;49.340;9.800;2022-10-16T05:51:11;14.15;;;6.70;;
9364;SDS011;4722;49.340;9.800;2022-10-16T05:53:37;11.82;;;6.13;;
9364;SDS011;4722;49.340;9.800;2022-10-16T05:56:04;11.45;;;5.22;;
9364;SDS011;4722;49.340;9.800;2022-10-16T05:58:31;4.65;;;2.55;;
9364;SDS011;4722;49.340;9.800;2022-10-16T06:01:00;3.15;;;1.63;;
9364;SDS011;4722;49.340;9.800;2022-10-16T06:03:30;5.15;;;1.10;;
9364;SDS011;4722;49.340;9.800;2022-10-16T06:05:56;1.50;;;0.77;;
9364;SDS011;4722;49.340;9.800;2022-10-16T06:08:22;4.18;;;0.77;;
9364;SDS011;4722;49.340;9.800;2022-10-16T06:10:48;3.83;;;0.85;;
9364;SDS011;4722;49.340;9.800;2022-10-16T06:13:14;2.03;;;0.70;;
9364;SDS011;4722;49.340;9.800;2022-10-16T06:15:41;1.65;;;0.50;;
9364;SDS011;4722;49.340;9.800;2022-10-16T06:18:08;1.73;;;0.57;;
9364;SDS011;4722;49.340;9.800;2022-10-16T06:20:34;0.93;;;0.70;;
9364;SDS011;4722;49.340;9.800;2022-10-16T06:23:00;1.95;;;0.60;;
9364;SDS011;4722;49.340;9.800;2022-10-16T06:25:26;1.05;;;0.40;;
9364;SDS011;4722;49.340;9.800;2022-10-16T06:27:52;1.38;;;0.63;;
9364;SDS011;4722;49.340;9.800;2022-10-16T06:30:18;1.60;;;0.77;;
9364;SDS011;4722;49.340;9.800;2022-10-16T06:32:44;2.38;;;1.23;;
9364;SDS011;4722;49.340;9.800;2022-10-16T06:35:10;9.60;;;4.85;;
9364;SDS011;4722;49.340;9.800;2022-10-16T06:37:36;19.75;;;8.18;;
9364;SDS011;4722;49.340;9.800;2022-10-16T06:40:02;28.90;;;11.60;;
9364;SDS011;4722;49.340;9.800;2022-10-16T06:42:29;19.33;;;7.10;;
9364;SDS011;4722;49.340;9.800;2022-10-16T06:44:55;9.05;;;3.53;;
9364;SDS011;4722;49.340;9.800;2022-10-16T06:47:21;5.43;;;2.20;;
9364;SDS011;4722;49.340;9.800;2022-10-16T06:49:47;10.43;;;3.63;;
9364;SDS011;4722;49.340;9.800;2022-10-16T06:52:13;6.75;;;2.65;;
9364;SDS011;4722;49.340;9.800;2022-10-16T06:54:39;9.07;;;2.65;;
9364;SDS011;4722;49.340;9.800;2022-10-16T06:57:05;3.85;;;1.95;;
9364;SDS011;4722;49.340;9.800;2022-10-16T06:59:31;2.47;;;1.20;;
9364;SDS011;4722;49.340;9.800;2022-10-16T07:01:57;3.30;;;1.42;;
9364;SDS011;4722;49.340;9.800;2022-10-16T07:04:23;1.10;;;0.80;;
9364;SDS011;4722;49.340;9.800;2022-10-16T07:06:49;3.08;;;1.52;;
9364;SDS011;4722;49.340;9.800;2022-10-16T07:09:16;2.25;;;1.25;;
9364;SDS011;4722;49.340;9.800;2022-10-16T07:11:42;2.45;;;1.08;;
9364;SDS011;4722;49.340;9.800;2022-10-16T07:14:26;2.75;;;1.17;;
9364;SDS011;4722;49.340;9.800;2022-10-16T07:16:52;6.18;;;3.25;;
9364;SDS011;4722;49.340;9.800;2022-10-16T07:19:18;5.90;;;3.50;;
9364;SDS011;4722;49.340;9.800;2022-10-16T07:21:44;3.55;;;2.03;;
9364;SDS011;4722;49.340;9.800;2022-10-16T07:24:12;4.78;;;1.67;;
9364;SDS011;4722;49.340;9.800;2022-10-16T07:26:39;2.00;;;0.90;;
9364;SDS011;4722;49.340;9.800;2022-10-16T07:29:12;2.28;;;1.10;;
9364;SDS011;4722;49.340;9.800;2022-10-16T07:31:39;2.08;;;0.70;;
9364;SDS011;4722;49.340;9.800;2022-10-16T07:34:05;1.30;;;0.90;;
9364;SDS011;4722;49.340;9.800;2022-10-16T07:36:31;0.85;;;0.52;;
9364;SDS011;4722;49.340;9.800;2022-10-16T07:38:57;1.60;;;0.70;;
9364;SDS011;4722;49.340;9.800;2022-10-16T07:41:23;1.40;;;0.57;;
9364;SDS011;4722;49.340;9.800;2022-10-16T07:43:50;7.68;;;1.08;;
9364;SDS011;4722;49.340;9.800;2022-10-16T07:46:24;0.98;;;0.65;;
9364;SDS011;4722;49.340;9.800;2022-10-16T07:48:50;1.95;;;0.75;;
9364;SDS011;4722;49.340;9.800;2022-10-16T07:51:19;1.30;;;0.68;;
9364;SDS011;4722;49.340;9.800;2022-10-16T07:53:48;0.90;;;0.60;;
9364;SDS011;4722;49.340;9.800;2022-10-16T07:56:15;1.48;;;0.80;;
9364;SDS011;4722;49.340;9.800;2022-10-16T07:58:41;1.60;;;0.90;;
9364;SDS011;4722;49.340;9.800;2022-10-16T08:01:08;1.95;;;0.75;;
9364;SDS011;4722;49.340;9.800;2022-10-16T08:03:58;2.13;;;0.90;;
9364;SDS011;4722;49.340;9.800;2022-10-16T08:06:26;2.58;;;0.68;;
9364;SDS011;4722;49.340;9.800;2022-10-16T08:08:54;1.05;;;0.60;;
9364;SDS011;4722;49.340;9.800;2022-10-16T08:11:20;1.55;;;0.77;;
9364;SDS011;4722;49.340;9.800;2022-10-16T08:13:57;9.18;;;0.80;;
9364;SDS011;4722;49.340;9.800;2022-10-16T08:16:23;4.43;;;0.70;;
9364;SDS011;4722;49.340;9.800;2022-10-16T08:18:54;0.98;;;0.50;;
9364;SDS011;4722;49.340;9.800;2022-10-16T08:21:21;0.70;;;0.30;;
9364;SDS011;4722;49.340;9.800;2022-10-16T08:23:48;4.55;;;0.98;;
9364;SDS011;4722;49.340;9.800;2022-10-16T08:26:14;0.52;;;0.30;;
9364;SDS011;4722;49.340;9.800;2022-10-16T08:28:46;0.93;;;0.30;;
9364;SDS011;4722;49.340;9.800;2022-10-16T08:31:23;1.80;;;0.43;;
9364;SDS011;4722;49.340;9.800;2022-10-16T08:34:14;6.93;;;0.40;;
9364;SDS011;4722;49.340;9.800;2022-10-16T08:36:43;0.98;;;0.30;;
9364;SDS011;4722;49.340;9.800;2022-10-16T08:39:09;0.73;;;0.38;;
9364;SDS011;4722;49.340;9.800;2022-10-16T08:44:35;0.85;;;0.20;;
9364;SDS011;4722;49.340;9.800;2022-10-16T08:47:25;0.93;;;0.40;;
9364;SDS011;4722;49.340;9.800;2022-10-16T08:50:02;1.38;;;0.50;;
9364;SDS011;4722;49.340;9.800;2022-10-16T08:52:34;1.38;;;0.50;;
9364;SDS011;4722;49.340;9.800;2022-10-16T08:55:06;0.17;;;0.17;;
9364;SDS011;4722;49.340;9.800;2022-10-16T08:57:34;3.00;;;0.50;;
9364;SDS011;4722;49.340;9.800;2022-10-16T09:00:05;0.82;;;0.43;;
9364;SDS011;4722;49.340;9.800;2022-10-16T09:02:37;1.13;;;0.50;;
9364;SDS011;4722;49.340;9.800;2022-10-16T09:08:07;1.70;;;0.55;;
9364;SDS011;4722;49.340;9.800;2022-10-16T09:24:16;1.55;;;0.47;;
9364;SDS011;4722;49.340;9.800;2022-10-16T09:27:14;0.80;;;0.20;;
9364;SDS011;4722;49.340;9.800;2022-10-16T09:29:43;0.50;;;0.22;;
9364;SDS011;4722;49.340;9.800;2022-10-16T09:32:13;3.50;;;0.40;;
9364;SDS011;4722;49.340;9.800;2022-10-16T09:34:43;0.73;;;0.35;;
9364;SDS011;4722;49.340;9.800;2022-10-16T09:37:13;0.77;;;0.30;;
9364;SDS011;4722;49.340;9.800;2022-10-16T09:39:45;0.82;;;0.30;;
9364;SDS011;4722;49.340;9.800;2022-10-16T09:42:19;0.40;;;0.20;;
9364;SDS011;4722;49.340;9.800;2022-10-16T09:44:52;1.90;;;0.43;;
9364;SDS011;4722;49.340;9.800;2022-10-16T09:47:23;1.88;;;0.40;;
9364;SDS011;4722;49.340;9.800;2022-10-16T09:49:55;2.00;;;0.40;;
9364;SDS011;4722;49.340;9.800;2022-10-16T09:52:43;0.93;;;0.30;;
9364;SDS011;4722;49.340;9.800;2022-10-16T09:55:13;0.80;;;0.32;;
9364;SDS011;4722;49.340;9.800;2022-10-16T09:57:52;2.70;;;0.47;;
9364;SDS011;4722;49.340;9.800;2022-10-16T10:00:19;2.78;;;0.30;;
9364;SDS011;4722;49.340;9.800;2022-10-16T10:02:45;0.65;;;0.40;;
9364;SDS011;4722;49.340;9.800;2022-10-16T10:05:22;0.55;;;0.20;;
9364;SDS011;4722;49.340;9.800;2022-10-16T10:07:55;1.13;;;0.47;;
9364;SDS011;4722;49.340;9.800;2022-10-16T10:10:26;0.80;;;0.32;;
9364;SDS011;4722;49.340;9.800;2022-10-16T10:12:53;2.75;;;1.48;;
9364;SDS011;4722;49.340;9.800;2022-10-16T10:15:19;4.95;;;1.73;;
9364;SDS011;4722;49.340;9.800;2022-10-16T10:20:22;0.80;;;0.30;;
9364;SDS011;4722;49.340;9.800;2022-10-16T10:23:00;2.75;;;1.25;;
9364;SDS011;4722;49.340;9.800;2022-10-16T10:35:33;0.47;;;0.20;;
9364;SDS011;4722;49.340;9.800;2022-10-16T10:46:14;0.82;;;0.40;;
9364;SDS011;4722;49.340;9.800;2022-10-16T10:56:43;0.60;;;0.30;;
9364;SDS011;4722;49.340;9.800;2022-10-16T10:59:38;0.68;;;0.20;;
9364;SDS011;4722;49.340;9.800;2022-10-16T11:02:26;0.50;;;0.32;;
9364;SDS011;4722;49.340;9.800;2022-10-16T11:07:43;1.45;;;0.30;;
9364;SDS011;4722;49.340;9.800;2022-10-16T11:10:15;0.75;;;0.20;;
9364;SDS011;4722;49.340;9.800;2022-10-16T11:12:42;0.50;;;0.30;;
9364;SDS011;4722;49.340;9.800;2022-10-16T11:15:13;0.80;;;0.40;;
9364;SDS011;4722;49.340;9.800;2022-10-16T11:20:34;1.33;;;0.40;;
9364;SDS011;4722;49.340;9.800;2022-10-16T11:23:15;1.10;;;0.43;;
9364;SDS011;4722;49.340;9.800;2022-10-16T11:25:46;8.32;;;0.45;;
9364;SDS011;4722;49.340;9.800;2022-10-16T11:28:16;1.05;;;0.40;;
9364;SDS011;4722;49.340;9.800;2022-10-16T11:39:10;0.40;;;0.30;;
9364;SDS011;4722;49.340;9.800;2022-10-16T11:42:03;0.77;;;0.40;;
9364;SDS011;4722;49.340;9.800;2022-10-16T11:50:20;3.75;;;1.02;;
9364;SDS011;4722;49.340;9.800;2022-10-16T11:52:52;2.45;;;1.00;;
9364;SDS011;4722;49.340;9.800;2022-10-16T11:55:27;0.65;;;0.40;;
9364;SDS011;4722;49.340;9.800;2022-10-16T11:58:05;2.72;;;0.60;;
9364;SDS011;4722;49.340;9.800;2022-10-16T12:00:42;1.45;;;0.52;;
9364;SDS011;4722;49.340;9.800;2022-10-16T12:08:40;0.40;;;0.20;;
9364;SDS011;4722;49.340;9.800;2022-10-16T12:11:19;1.85;;;0.35;;
9364;SDS011;4722;49.340;9.800;2022-10-16T12:13:46;0.73;;;0.43;;
9364;SDS011;4722;49.340;9.800;2022-10-16T12:18:39;0.70;;;0.30;;
9364;SDS011;4722;49.340;9.800;2022-10-16T12:21:06;1.52;;;0.45;;
9364;SDS011;4722;49.340;9.800;2022-10-16T12:23:37;1.33;;;0.55;;
9364;SDS011;4722;49.340;9.800;2022-10-16T12:26:11;0.43;;;0.30;;
9364;SDS011;4722;49.340;9.800;2022-10-16T12:28:37;0.40;;;0.30;;
9364;SDS011;4722;49.340;9.800;2022-10-16T12:31:06;1.00;;;0.38;;
9364;SDS011;4722;49.340;9.800;2022-10-16T12:33:34;1.80;;;0.30;;
9364;SDS011;4722;49.340;9.800;2022-10-16T12:36:02;1.17;;;0.50;;
9364;SDS011;4722;49.340;9.800;2022-10-16T12:38:35;0.15;;;0.10;;
9364;SDS011;4722;49.340;9.800;2022-10-16T12:41:10;0.30;;;0.30;;
9364;SDS011;4722;49.340;9.800;2022-10-16T12:46:32;2.72;;;0.40;;
9364;SDS011;4722;49.340;9.800;2022-10-16T12:51:38;1.95;;;0.75;;
9364;SDS011;4722;49.340;9.800;2022-10-16T12:54:11;0.52;;;0.30;;
9364;SDS011;4722;49.340;9.800;2022-10-16T12:59:41;0.35;;;0.28;;
9364;SDS011;4722;49.340;9.800;2022-10-16T13:02:18;0.20;;;0.20;;
9364;SDS011;4722;49.340;9.800;2022-10-16T13:05:10;0.65;;;0.20;;
9364;SDS011;4722;49.340;9.800;2022-10-16T13:08:13;0.55;;;0.28;;
9364;SDS011;4722;49.340;9.800;2022-10-16T13:19:01;1.00;;;0.35;;
9364;SDS011;4722;49.340;9.800;2022-10-16T13:21:57;0.98;;;0.30;;
9364;SDS011;4722;49.340;9.800;2022-10-16T13:24:48;1.17;;;0.25;;
9364;SDS011;4722;49.340;9.800;2022-10-16T13:28:07;0.35;;;0.22;;
9364;SDS011;4722;49.340;9.800;2022-10-16T13:30:35;1.83;;;0.68;;
9364;SDS011;4722;49.340;9.800;2022-10-16T13:33:19;3.75;;;2.08;;
9364;SDS011;4722;49.340;9.800;2022-10-16T13:36:01;1.73;;;0.77;;
9364;SDS011;4722;49.340;9.800;2022-10-16T13:38:28;0.93;;;0.38;;
9364;SDS011;4722;49.340;9.800;2022-10-16T13:43:24;2.80;;;0.65;;
9364;SDS011;4722;49.340;9.800;2022-10-16T13:48:40;1.80;;;1.20;;
9364;SDS011;4722;49.340;9.800;2022-10-16T13:53:38;1.02;;;0.40;;
9364;SDS011;4722;49.340;9.800;2022-10-16T13:56:07;0.82;;;0.30;;
9364;SDS011;4722;49.340;9.800;2022-10-16T13:58:39;0.20;;;0.20;;
9364;SDS011;4722;49.340;9.800;2022-10-16T14:01:11;0.60;;;0.20;;
9364;SDS011;4722;49.340;9.800;2022-10-16T14:03:49;0.52;;;0.45;;
9364;SDS011;4722;49.340;9.800;2022-10-16T14:06:17;1.20;;;0.30;;
9364;SDS011;4722;49.340;9.800;2022-10-16T14:08:44;1.30;;;0.25;;
9364;SDS011;4722;49.340;9.800;2022-10-16T14:11:11;0.32;;;0.20;;
9364;SDS011;4722;49.340;9.800;2022-10-16T14:13:39;0.40;;;0.30;;
9364;SDS011;4722;49.340;9.800;2022-10-16T14:16:07;0.85;;;0.43;;
9364;SDS011;4722;49.340;9.800;2022-10-16T14:18:35;0.90;;;0.40;;
9364;SDS011;4722;49.340;9.800;2022-10-16T14:21:04;1.75;;;0.50;;
9364;SDS011;4722;49.340;9.800;2022-10-16T14:23:36;2.10;;;0.43;;
9364;SDS011;4722;49.340;9.800;2022-10-16T14:28:32;0.30;;;0.20;;
9364;SDS011;4722;49.340;9.800;2022-10-16T14:30:59;2.08;;;0.57;;
9364;SDS011;4722;49.340;9.800;2022-10-16T14:36:13;0.93;;;0.38;;
9364;SDS011;4722;49.340;9.800;2022-10-16T14:39:04;1.33;;;0.40;;
9364;SDS011;4722;49.340;9.800;2022-10-16T14:41:43;1.00;;;0.40;;
9364;SDS011;4722;49.340;9.800;2022-10-16T14:44:11;1.10;;;0.37;;
9364;SDS011;4722;49.340;9.800;2022-10-16T14:46:38;0.65;;;0.43;;
9364;SDS011;4722;49.340;9.800;2022-10-16T14:51:38;0.60;;;0.40;;
9364;SDS011;4722;49.340;9.800;2022-10-16T14:54:09;2.22;;;0.50;;
9364;SDS011;4722;49.340;9.800;2022-10-16T14:56:42;1.45;;;0.40;;
9364;SDS011;4722;49.340;9.800;2022-10-16T14:59:23;0.73;;;0.20;;
9364;SDS011;4722;49.340;9.800;2022-10-16T15:01:55;0.98;;;0.22;;
9364;SDS011;4722;49.340;9.800;2022-10-16T15:04:21;0.93;;;0.50;;
9364;SDS011;4722;49.340;9.800;2022-10-16T15:06:47;1.85;;;0.70;;
9364;SDS011;4722;49.340;9.800;2022-10-16T15:09:13;2.50;;;0.73;;
9364;SDS011;4722;49.340;9.800;2022-10-16T15:11:39;3.03;;;1.20;;
9364;SDS011;4722;49.340;9.800;2022-10-16T15:14:05;1.90;;;0.75;;
9364;SDS011;4722;49.340;9.800;2022-10-16T15:16:31;5.45;;;0.63;;
9364;SDS011;4722;49.340;9.800;2022-10-16T15:18:57;0.85;;;0.50;;
9364;SDS011;4722;49.340;9.800;2022-10-16T15:21:24;1.08;;;0.40;;
9364;SDS011;4722;49.340;9.800;2022-10-16T15:23:55;0.70;;;0.38;;
9364;SDS011;4722;49.340;9.800;2022-10-16T15:26:22;1.55;;;0.40;;
9364;SDS011;4722;49.340;9.800;2022-10-16T15:28:51;1.08;;;0.40;;
9364;SDS011;4722;49.340;9.800;2022-10-16T15:31:18;1.05;;;0.40;;
9364;SDS011;4722;49.340;9.800;2022-10-16T15:33:44;2.08;;;0.75;;
9364;SDS011;4722;49.340;9.800;2022-10-16T15:36:12;0.77;;;0.50;;
9364;SDS011;4722;49.340;9.800;2022-10-16T15:38:38;1.33;;;0.40;;
9364;SDS011;4722;49.340;9.800;2022-10-16T15:41:04;0.93;;;0.20;;
9364;SDS011;4722;49.340;9.800;2022-10-16T15:43:30;1.13;;;0.47;;
9364;SDS011;4722;49.340;9.800;2022-10-16T15:46:01;1.13;;;0.50;;
9364;SDS011;4722;49.340;9.800;2022-10-16T15:48:28;0.20;;;0.20;;
9364;SDS011;4722;49.340;9.800;2022-10-16T15:50:54;1.35;;;0.65;;
9364;SDS011;4722;49.340;9.800;2022-10-16T15:53:20;2.08;;;0.55;;
9364;SDS011;4722;49.340;9.800;2022-10-16T15:55:46;2.67;;;0.60;;
9364;SDS011;4722;49.340;9.800;2022-10-16T15:58:12;1.50;;;0.30;;
9364;SDS011;4722;49.340;9.800;2022-10-16T16:00:38;1.00;;;0.40;;
9364;SDS011;4722;49.340;9.800;2022-10-16T16:03:04;1.10;;;0.40;;
9364;SDS011;4722;49.340;9.800;2022-10-16T16:05:30;1.83;;;0.40;;
9364;SDS011;4722;49.340;9.800;2022-10-16T16:07:58;0.93;;;0.52;;
9364;SDS011;4722;49.340;9.800;2022-10-16T16:10:24;0.55;;;0.28;;
9364;SDS011;4722;49.340;9.800;2022-10-16T16:12:50;1.02;;;0.40;;
9364;SDS011;4722;49.340;9.800;2022-10-16T16:15:19;0.93;;;0.40;;
9364;SDS011;4722;49.340;9.800;2022-10-16T16:17:46;3.83;;;0.45;;
9364;SDS011;4722;49.340;9.800;2022-10-16T16:20:12;0.90;;;0.40;;
9364;SDS011;4722;49.340;9.800;2022-10-16T16:22:38;0.88;;;0.30;;
9364;SDS011;4722;49.340;9.800;2022-10-16T16:25:04;3.80;;;1.00;;
9364;SDS011;4722;49.340;9.800;2022-10-16T16:27:30;1.20;;;0.50;;
9364;SDS011;4722;49.340;9.800;2022-10-16T16:29:58;2.72;;;0.65;;
9364;SDS011;4722;49.340;9.800;2022-10-16T16:32:24;1.38;;;0.52;;
9364;SDS011;4722;49.340;9.800;2022-10-16T16:34:50;1.70;;;0.60;;
9364;SDS011;4722;49.340;9.800;2022-10-16T16:37:16;0.82;;;0.50;;
9364;SDS011;4722;49.340;9.800;2022-10-16T16:39:42;1.20;;;0.55;;
9364;SDS011;4722;49.340;9.800;2022-10-16T16:42:08;1.40;;;0.45;;
9364;SDS011;4722;49.340;9.800;2022-10-16T16:44:35;1.85;;;0.63;;
9364;SDS011;4722;49.340;9.800;2022-10-16T16:47:01;1.48;;;0.80;;
9364;SDS011;4722;49.340;9.800;2022-10-16T16:49:27;1.73;;;0.55;;
9364;SDS011;4722;49.340;9.800;2022-10-16T16:51:53;1.23;;;0.45;;
9364;SDS011;4722;49.340;9.800;2022-10-16T16:54:20;1.85;;;0.32;;
9364;SDS011;4722;49.340;9.800;2022-10-16T16:56:46;2.42;;;0.60;;
9364;SDS011;4722;49.340;9.800;2022-10-16T16:59:16;1.08;;;0.55;;
9364;SDS011;4722;49.340;9.800;2022-10-16T17:01:44;1.23;;;0.57;;
9364;SDS011;4722;49.340;9.800;2022-10-16T17:04:10;1.42;;;0.60;;
9364;SDS011;4722;49.340;9.800;2022-10-16T17:06:37;1.08;;;0.60;;
9364;SDS011;4722;49.340;9.800;2022-10-16T17:09:03;1.85;;;0.77;;
9364;SDS011;4722;49.340;9.800;2022-10-16T17:11:30;2.85;;;1.25;;
9364;SDS011;4722;49.340;9.800;2022-10-16T17:13:56;3.70;;;1.63;;
9364;SDS011;4722;49.340;9.800;2022-10-16T17:16:24;4.25;;;1.77;;
9364;SDS011;4722;49.340;9.800;2022-10-16T17:18:52;4.15;;;1.20;;
9364;SDS011;4722;49.340;9.800;2022-10-16T17:21:18;2.33;;;1.38;;
9364;SDS011;4722;49.340;9.800;2022-10-16T17:23:44;3.60;;;2.13;;
9364;SDS011;4722;49.340;9.800;2022-10-16T17:26:14;2.60;;;1.20;;